PTOGG SBKG-SBAR
Flight info
| Callsign | PTOGG |
|---|---|
| Flight time | 1h 27m |
| Altitude | 10500 |
| Route | DCT |
| Aircraft | C208/L-SDFGR/C |
Departure
| Time | 2026-05-09 17:33 |
|---|---|
| Airport | Presidente João Suassuna Airport (SBKG) |
Arrival
| Time | 2026-05-09 19:00 |
|---|---|
| Airport | Aracaju - Santa Maria Airport (SBAR) |
| Time | Latitude | Longitude | Altitude | Speed | Heading |
|---|---|---|---|---|---|
| 2026-05-09 17:13 | -7.26897 | -35.89444 | 1630 ft | 0 kts | 124° |
| 2026-05-09 17:22 | -7.26903 | -35.89445 | 1629 ft | 4 kts | 227° |
| 2026-05-09 17:22 | -7.26953 | -35.89453 | 1604 ft | 7 kts | 137° |
| 2026-05-09 17:22 | -7.26980 | -35.89439 | 1603 ft | 3 kts | 196° |
| 2026-05-09 17:23 | -7.26983 | -35.89441 | 1603 ft | 0 kts | 218° |
| 2026-05-09 17:30 | -7.27029 | -35.89485 | 1601 ft | 16 kts | 258° |
| 2026-05-09 17:30 | -7.26944 | -35.89626 | 1608 ft | 31 kts | 306° |
| 2026-05-09 17:30 | -7.26793 | -35.89838 | 1608 ft | 42 kts | 307° |
| 2026-05-09 17:31 | -7.26626 | -35.90079 | 1610 ft | 36 kts | 298° |
| 2026-05-09 17:31 | -7.26569 | -35.90172 | 1607 ft | 10 kts | 73° |
| 2026-05-09 17:32 | -7.26724 | -35.89944 | 1607 ft | 60 kts | 126° |
| 2026-05-09 17:32 | -7.27045 | -35.89486 | 1642 ft | 94 kts | 125° |
| 2026-05-09 17:32 | -7.27473 | -35.88895 | 1734 ft | 112 kts | 125° |
| 2026-05-09 17:33 | -7.27965 | -35.88233 | 1962 ft | 123 kts | 128° |
| 2026-05-09 17:33 | -7.28631 | -35.87689 | 2243 ft | 131 kts | 163° |
| 2026-05-09 17:33 | -7.29505 | -35.87970 | 2376 ft | 149 kts | 229° |
| 2026-05-09 17:33 | -7.29645 | -35.88968 | 2663 ft | 146 kts | 286° |
| 2026-05-09 17:34 | -7.29196 | -35.89877 | 2822 ft | 147 kts | 294° |
| 2026-05-09 17:35 | -7.33210 | -35.91517 | 3793 ft | 129 kts | 189° |
| 2026-05-09 17:35 | -7.34072 | -35.91776 | 3940 ft | 128 kts | 188° |
| 2026-05-09 17:36 | -7.34904 | -35.92035 | 4094 ft | 125 kts | 188° |
| 2026-05-09 17:36 | -7.35743 | -35.92294 | 4243 ft | 127 kts | 191° |
| 2026-05-09 17:36 | -7.36590 | -35.92560 | 4394 ft | 127 kts | 190° |
| 2026-05-09 17:36 | -7.37450 | -35.92829 | 4554 ft | 132 kts | 188° |
| 2026-05-09 17:37 | -7.38342 | -35.93097 | 4710 ft | 135 kts | 190° |
| 2026-05-09 17:37 | -7.39243 | -35.93386 | 4848 ft | 136 kts | 192° |
| 2026-05-09 17:37 | -7.40153 | -35.93679 | 5002 ft | 139 kts | 193° |
| 2026-05-09 17:37 | -7.41072 | -35.93966 | 5149 ft | 140 kts | 193° |
| 2026-05-09 17:38 | -7.41998 | -35.94265 | 5282 ft | 139 kts | 192° |
| 2026-05-09 17:38 | -7.42921 | -35.94551 | 5437 ft | 139 kts | 191° |
| 2026-05-09 17:38 | -7.43853 | -35.94844 | 5584 ft | 140 kts | 191° |
| 2026-05-09 17:39 | -7.45721 | -35.95430 | 5877 ft | 141 kts | 192° |
| 2026-05-09 17:39 | -7.46645 | -35.95721 | 6023 ft | 141 kts | 192° |
| 2026-05-09 17:39 | -7.47580 | -35.96017 | 6171 ft | 141 kts | 191° |
| 2026-05-09 17:39 | -7.48518 | -35.96309 | 6314 ft | 141 kts | 191° |
| 2026-05-09 17:40 | -7.49457 | -35.96603 | 6463 ft | 142 kts | 191° |
| 2026-05-09 17:40 | -7.50401 | -35.96900 | 6600 ft | 142 kts | 192° |
| 2026-05-09 17:40 | -7.51343 | -35.97198 | 6737 ft | 141 kts | 192° |
| 2026-05-09 17:40 | -7.52281 | -35.97490 | 6876 ft | 141 kts | 192° |
| 2026-05-09 17:41 | -7.53217 | -35.97785 | 7013 ft | 141 kts | 191° |
| 2026-05-09 17:41 | -7.54155 | -35.98079 | 7153 ft | 141 kts | 191° |
| 2026-05-09 17:41 | -7.55091 | -35.98373 | 7286 ft | 141 kts | 192° |
| 2026-05-09 17:41 | -7.56015 | -35.98664 | 7428 ft | 141 kts | 192° |
| 2026-05-09 17:42 | -7.56949 | -35.98957 | 7569 ft | 141 kts | 191° |
| 2026-05-09 17:42 | -7.57882 | -35.99249 | 7715 ft | 140 kts | 191° |
| 2026-05-09 17:42 | -7.58813 | -35.99543 | 7853 ft | 140 kts | 191° |
| 2026-05-09 17:42 | -7.59743 | -35.99834 | 7997 ft | 139 kts | 191° |
| 2026-05-09 17:43 | -7.60672 | -36.00126 | 8137 ft | 140 kts | 192° |
| 2026-05-09 17:43 | -7.61600 | -36.00418 | 8283 ft | 140 kts | 192° |
| 2026-05-09 17:43 | -7.62532 | -36.00711 | 8432 ft | 141 kts | 192° |
| 2026-05-09 17:43 | -7.63472 | -36.01007 | 8577 ft | 141 kts | 191° |
| 2026-05-09 17:44 | -7.64409 | -36.01300 | 8726 ft | 141 kts | 191° |
| 2026-05-09 17:44 | -7.65348 | -36.01596 | 8868 ft | 141 kts | 191° |
| 2026-05-09 17:44 | -7.66271 | -36.01886 | 9016 ft | 141 kts | 191° |
| 2026-05-09 17:44 | -7.67206 | -36.02179 | 9166 ft | 141 kts | 191° |
| 2026-05-09 17:45 | -7.68149 | -36.02476 | 9315 ft | 143 kts | 191° |
| 2026-05-09 17:45 | -7.69104 | -36.02777 | 9466 ft | 144 kts | 191° |
| 2026-05-09 17:45 | -7.70059 | -36.03078 | 9614 ft | 143 kts | 191° |
| 2026-05-09 17:45 | -7.71009 | -36.03376 | 9766 ft | 143 kts | 191° |
| 2026-05-09 17:46 | -7.71957 | -36.03675 | 9910 ft | 143 kts | 191° |
| 2026-05-09 17:46 | -7.72907 | -36.03975 | 10042 ft | 142 kts | 192° |
| 2026-05-09 17:46 | -7.73851 | -36.04270 | 10179 ft | 142 kts | 191° |
| 2026-05-09 17:46 | -7.74801 | -36.04568 | 10316 ft | 144 kts | 191° |
| 2026-05-09 17:47 | -7.75745 | -36.04866 | 10449 ft | 144 kts | 191° |
| 2026-05-09 17:47 | -7.76720 | -36.05173 | 10490 ft | 151 kts | 192° |
| 2026-05-09 17:47 | -7.77749 | -36.05497 | 10509 ft | 159 kts | 192° |
| 2026-05-09 17:47 | -7.78830 | -36.05841 | 10508 ft | 166 kts | 193° |
| 2026-05-09 17:48 | -7.79945 | -36.06196 | 10504 ft | 169 kts | 192° |
| 2026-05-09 17:48 | -7.81079 | -36.06552 | 10498 ft | 172 kts | 192° |
| 2026-05-09 17:48 | -7.82229 | -36.06914 | 10499 ft | 174 kts | 193° |
| 2026-05-09 17:48 | -7.83388 | -36.07280 | 10502 ft | 175 kts | 193° |
| 2026-05-09 17:49 | -7.84553 | -36.07646 | 10505 ft | 176 kts | 192° |
| 2026-05-09 17:49 | -7.85709 | -36.08011 | 10506 ft | 176 kts | 193° |
| 2026-05-09 17:49 | -7.86885 | -36.08381 | 10507 ft | 177 kts | 193° |
| 2026-05-09 17:49 | -7.88067 | -36.08753 | 10503 ft | 178 kts | 193° |
| 2026-05-09 17:50 | -7.89250 | -36.09125 | 10505 ft | 178 kts | 193° |
| 2026-05-09 17:50 | -7.91615 | -36.09871 | 10502 ft | 177 kts | 192° |
| 2026-05-09 17:50 | -7.92793 | -36.10240 | 10508 ft | 178 kts | 193° |
| 2026-05-09 17:51 | -7.93976 | -36.10613 | 10504 ft | 178 kts | 193° |
| 2026-05-09 17:51 | -7.95151 | -36.10984 | 10504 ft | 177 kts | 193° |
| 2026-05-09 17:51 | -7.96311 | -36.11348 | 10501 ft | 177 kts | 193° |
| 2026-05-09 17:51 | -7.97488 | -36.11719 | 10501 ft | 177 kts | 192° |
| 2026-05-09 17:52 | -7.98661 | -36.12089 | 10499 ft | 177 kts | 192° |
| 2026-05-09 17:52 | -7.99841 | -36.12460 | 10496 ft | 177 kts | 193° |
| 2026-05-09 17:52 | -8.01022 | -36.12832 | 10497 ft | 178 kts | 193° |
| 2026-05-09 17:52 | -8.02207 | -36.13207 | 10494 ft | 178 kts | 192° |
| 2026-05-09 17:53 | -8.03390 | -36.13579 | 10498 ft | 178 kts | 193° |
| 2026-05-09 17:53 | -8.04571 | -36.13950 | 10498 ft | 177 kts | 192° |
| 2026-05-09 17:53 | -8.05740 | -36.14319 | 10496 ft | 178 kts | 192° |
| 2026-05-09 17:53 | -8.06923 | -36.14692 | 10495 ft | 178 kts | 192° |
| 2026-05-09 17:54 | -8.08108 | -36.15066 | 10494 ft | 178 kts | 192° |
| 2026-05-09 17:54 | -8.09288 | -36.15440 | 10488 ft | 176 kts | 191° |
| 2026-05-09 17:54 | -8.10461 | -36.15801 | 10496 ft | 177 kts | 193° |
| 2026-05-09 17:54 | -8.11638 | -36.16177 | 10491 ft | 178 kts | 193° |
| 2026-05-09 17:55 | -8.12802 | -36.16549 | 10498 ft | 173 kts | 192° |
| 2026-05-09 17:55 | -8.13961 | -36.16909 | 10500 ft | 175 kts | 192° |
| 2026-05-09 17:55 | -8.15129 | -36.17276 | 10500 ft | 176 kts | 192° |
| 2026-05-09 17:55 | -8.16285 | -36.17642 | 10500 ft | 177 kts | 193° |
| 2026-05-09 17:56 | -8.17459 | -36.18012 | 10501 ft | 177 kts | 193° |
| 2026-05-09 17:56 | -8.18637 | -36.18384 | 10499 ft | 177 kts | 192° |
| 2026-05-09 17:56 | -8.19818 | -36.18756 | 10499 ft | 177 kts | 192° |
| 2026-05-09 17:57 | -8.22175 | -36.19501 | 10498 ft | 177 kts | 192° |
| 2026-05-09 17:57 | -8.23353 | -36.19871 | 10496 ft | 177 kts | 193° |
| 2026-05-09 17:57 | -8.24530 | -36.20242 | 10495 ft | 178 kts | 193° |
| 2026-05-09 17:57 | -8.25704 | -36.20615 | 10495 ft | 176 kts | 192° |
| 2026-05-09 17:58 | -8.26858 | -36.20977 | 10499 ft | 175 kts | 191° |
| 2026-05-09 17:58 | -8.28027 | -36.21343 | 10499 ft | 176 kts | 192° |
| 2026-05-09 17:58 | -8.29201 | -36.21716 | 10499 ft | 177 kts | 192° |
| 2026-05-09 17:58 | -8.30379 | -36.22088 | 10498 ft | 177 kts | 192° |
| 2026-05-09 17:59 | -8.31558 | -36.22460 | 10497 ft | 177 kts | 192° |
| 2026-05-09 17:59 | -8.32736 | -36.22832 | 10497 ft | 178 kts | 192° |
| 2026-05-09 17:59 | -8.33919 | -36.23205 | 10497 ft | 178 kts | 192° |
| 2026-05-09 17:59 | -8.35102 | -36.23579 | 10497 ft | 178 kts | 192° |
| 2026-05-09 18:00 | -8.36263 | -36.23945 | 10498 ft | 177 kts | 192° |
| 2026-05-09 18:00 | -8.37440 | -36.24316 | 10496 ft | 177 kts | 192° |
| 2026-05-09 18:00 | -8.38625 | -36.24648 | 10498 ft | 175 kts | 185° |
| 2026-05-09 18:00 | -8.39825 | -36.24763 | 10498 ft | 172 kts | 174° |
| 2026-05-09 18:01 | -8.41020 | -36.24715 | 10497 ft | 171 kts | 172° |
| 2026-05-09 18:01 | -8.42214 | -36.24655 | 10496 ft | 172 kts | 172° |
| 2026-05-09 18:01 | -8.43410 | -36.24618 | 10498 ft | 173 kts | 176° |
| 2026-05-09 18:01 | -8.44620 | -36.24678 | 10502 ft | 175 kts | 178° |
| 2026-05-09 18:02 | -8.45821 | -36.24746 | 10500 ft | 175 kts | 178° |
| 2026-05-09 18:02 | -8.47031 | -36.24816 | 10500 ft | 174 kts | 178° |
| 2026-05-09 18:02 | -8.48236 | -36.24878 | 10499 ft | 173 kts | 178° |
| 2026-05-09 18:02 | -8.49440 | -36.24988 | 10497 ft | 176 kts | 187° |
| 2026-05-09 18:03 | -8.50616 | -36.25372 | 10499 ft | 179 kts | 198° |
| 2026-05-09 18:03 | -8.51728 | -36.25962 | 10505 ft | 181 kts | 205° |
| 2026-05-09 18:03 | -8.52821 | -36.26592 | 10501 ft | 181 kts | 205° |
| 2026-05-09 18:03 | -8.53803 | -36.27393 | 10496 ft | 188 kts | 232° |
| 2026-05-09 18:04 | -8.54452 | -36.28554 | 10505 ft | 189 kts | 235° |
| 2026-05-09 18:04 | -8.55269 | -36.29584 | 10501 ft | 186 kts | 219° |
| 2026-05-09 18:04 | -8.56305 | -36.30288 | 10498 ft | 179 kts | 197° |
| 2026-05-09 18:04 | -8.57480 | -36.30677 | 10498 ft | 177 kts | 190° |
| 2026-05-09 18:05 | -8.58665 | -36.31025 | 10497 ft | 178 kts | 191° |
| 2026-05-09 18:05 | -8.59853 | -36.31394 | 10499 ft | 178 kts | 192° |
| 2026-05-09 18:05 | -8.61038 | -36.31768 | 10499 ft | 178 kts | 192° |
| 2026-05-09 18:05 | -8.62222 | -36.32143 | 10499 ft | 178 kts | 191° |
| 2026-05-09 18:06 | -8.63408 | -36.32519 | 10499 ft | 178 kts | 191° |
| 2026-05-09 18:06 | -8.64580 | -36.32888 | 10498 ft | 179 kts | 192° |
| 2026-05-09 18:06 | -8.65770 | -36.33264 | 10499 ft | 179 kts | 192° |
| 2026-05-09 18:06 | -8.66964 | -36.33643 | 10498 ft | 180 kts | 192° |
| 2026-05-09 18:07 | -8.68155 | -36.34020 | 10498 ft | 179 kts | 191° |
| 2026-05-09 18:07 | -8.69347 | -36.34395 | 10499 ft | 179 kts | 192° |
| 2026-05-09 18:07 | -8.70134 | -36.34644 | 10498 ft | 179 kts | 192° |
| 2026-05-09 18:07 | -8.71728 | -36.35149 | 10497 ft | 180 kts | 192° |
| 2026-05-09 18:08 | -8.72517 | -36.35399 | 10496 ft | 179 kts | 191° |
| 2026-05-09 18:08 | -8.74108 | -36.35902 | 10497 ft | 179 kts | 191° |
| 2026-05-09 18:08 | -8.74897 | -36.36151 | 10497 ft | 179 kts | 192° |
| 2026-05-09 18:08 | -8.76081 | -36.36526 | 10499 ft | 178 kts | 192° |
| 2026-05-09 18:09 | -8.77264 | -36.36899 | 10497 ft | 178 kts | 192° |
| 2026-05-09 18:09 | -8.78445 | -36.37273 | 10497 ft | 178 kts | 191° |
| 2026-05-09 18:09 | -8.79627 | -36.37647 | 10497 ft | 178 kts | 192° |
| 2026-05-09 18:09 | -8.80811 | -36.38022 | 10497 ft | 178 kts | 191° |
| 2026-05-09 18:10 | -8.81981 | -36.38392 | 10498 ft | 178 kts | 192° |
| 2026-05-09 18:10 | -8.82780 | -36.38645 | 10497 ft | 178 kts | 192° |
| 2026-05-09 18:10 | -8.84351 | -36.39142 | 10498 ft | 178 kts | 192° |
| 2026-05-09 18:10 | -8.85541 | -36.39518 | 10496 ft | 179 kts | 192° |
| 2026-05-09 18:11 | -8.86726 | -36.39894 | 10498 ft | 178 kts | 192° |
| 2026-05-09 18:11 | -8.87896 | -36.40264 | 10500 ft | 178 kts | 192° |
| 2026-05-09 18:11 | -8.89079 | -36.40638 | 10497 ft | 178 kts | 192° |
| 2026-05-09 18:11 | -8.90264 | -36.41013 | 10497 ft | 178 kts | 192° |
| 2026-05-09 18:12 | -8.91448 | -36.41387 | 10498 ft | 178 kts | 191° |
| 2026-05-09 18:12 | -8.92634 | -36.41764 | 10496 ft | 179 kts | 192° |
| 2026-05-09 18:12 | -8.93807 | -36.42135 | 10498 ft | 179 kts | 192° |
| 2026-05-09 18:12 | -8.94996 | -36.42511 | 10496 ft | 179 kts | 192° |
| 2026-05-09 18:13 | -8.96180 | -36.42888 | 10497 ft | 178 kts | 191° |
| 2026-05-09 18:13 | -8.97361 | -36.43260 | 10499 ft | 178 kts | 192° |
| 2026-05-09 18:13 | -8.98543 | -36.43634 | 10496 ft | 178 kts | 192° |
| 2026-05-09 18:13 | -8.99727 | -36.44009 | 10499 ft | 177 kts | 192° |
| 2026-05-09 18:14 | -9.00905 | -36.44383 | 10498 ft | 177 kts | 192° |
| 2026-05-09 18:14 | -9.02085 | -36.44757 | 10495 ft | 178 kts | 192° |
| 2026-05-09 18:14 | -9.03257 | -36.45128 | 10492 ft | 179 kts | 192° |
| 2026-05-09 18:14 | -9.04445 | -36.45504 | 10493 ft | 178 kts | 192° |
| 2026-05-09 18:15 | -9.05632 | -36.45880 | 10493 ft | 179 kts | 192° |
| 2026-05-09 18:15 | -9.06818 | -36.46256 | 10491 ft | 179 kts | 192° |
| 2026-05-09 18:15 | -9.08005 | -36.46632 | 10491 ft | 179 kts | 192° |
| 2026-05-09 18:15 | -9.09195 | -36.47009 | 10493 ft | 179 kts | 191° |
| 2026-05-09 18:16 | -9.10388 | -36.47387 | 10489 ft | 179 kts | 192° |
| 2026-05-09 18:16 | -9.11579 | -36.47766 | 10488 ft | 179 kts | 192° |
| 2026-05-09 18:16 | -9.12767 | -36.48142 | 10489 ft | 178 kts | 191° |
| 2026-05-09 18:16 | -9.13934 | -36.48511 | 10487 ft | 178 kts | 191° |
| 2026-05-09 18:17 | -9.15119 | -36.48886 | 10484 ft | 179 kts | 191° |
| 2026-05-09 18:17 | -9.16307 | -36.49264 | 10488 ft | 179 kts | 192° |
| 2026-05-09 18:17 | -9.17503 | -36.49644 | 10485 ft | 179 kts | 192° |
| 2026-05-09 18:17 | -9.18689 | -36.50019 | 10488 ft | 178 kts | 191° |
| 2026-05-09 18:18 | -9.19874 | -36.50395 | 10493 ft | 178 kts | 191° |
| 2026-05-09 18:18 | -9.21059 | -36.50768 | 10492 ft | 180 kts | 191° |
| 2026-05-09 18:18 | -9.22251 | -36.51148 | 10491 ft | 179 kts | 192° |
| 2026-05-09 18:18 | -9.23441 | -36.51528 | 10487 ft | 179 kts | 191° |
| 2026-05-09 18:19 | -9.24632 | -36.51904 | 10494 ft | 179 kts | 192° |
| 2026-05-09 18:19 | -9.27006 | -36.52657 | 10488 ft | 180 kts | 192° |
| 2026-05-09 18:19 | -9.28203 | -36.53037 | 10487 ft | 180 kts | 192° |
| 2026-05-09 18:20 | -9.29398 | -36.53415 | 10488 ft | 180 kts | 192° |
| 2026-05-09 18:20 | -9.30597 | -36.53797 | 10491 ft | 182 kts | 191° |
| 2026-05-09 18:20 | -9.31817 | -36.54191 | 10501 ft | 185 kts | 191° |
| 2026-05-09 18:20 | -9.33061 | -36.54573 | 10494 ft | 187 kts | 192° |
| 2026-05-09 18:21 | -9.34295 | -36.54972 | 10486 ft | 185 kts | 192° |
| 2026-05-09 18:21 | -9.35513 | -36.55356 | 10504 ft | 187 kts | 191° |
| 2026-05-09 18:21 | -9.36769 | -36.55755 | 10499 ft | 191 kts | 192° |
| 2026-05-09 18:21 | -9.38044 | -36.56168 | 10493 ft | 193 kts | 192° |
| 2026-05-09 18:22 | -9.39327 | -36.56569 | 10488 ft | 191 kts | 192° |
| 2026-05-09 18:22 | -9.40580 | -36.56965 | 10487 ft | 186 kts | 192° |
| 2026-05-09 18:22 | -9.41809 | -36.57356 | 10484 ft | 183 kts | 192° |
| 2026-05-09 18:22 | -9.43022 | -36.57741 | 10488 ft | 181 kts | 192° |
| 2026-05-09 18:23 | -9.44208 | -36.58117 | 10482 ft | 180 kts | 192° |
| 2026-05-09 18:23 | -9.45403 | -36.58497 | 10484 ft | 179 kts | 192° |
| 2026-05-09 18:23 | -9.46591 | -36.58873 | 10481 ft | 179 kts | 192° |
| 2026-05-09 18:23 | -9.47774 | -36.59249 | 10482 ft | 178 kts | 192° |
| 2026-05-09 18:24 | -9.48956 | -36.59625 | 10478 ft | 178 kts | 192° |
| 2026-05-09 18:24 | -9.50137 | -36.59999 | 10483 ft | 178 kts | 192° |
| 2026-05-09 18:24 | -9.51319 | -36.60375 | 10481 ft | 178 kts | 191° |
| 2026-05-09 18:25 | -9.53678 | -36.61124 | 10484 ft | 177 kts | 192° |
| 2026-05-09 18:25 | -9.54844 | -36.61495 | 10486 ft | 178 kts | 192° |
| 2026-05-09 18:25 | -9.56026 | -36.61870 | 10482 ft | 178 kts | 192° |
| 2026-05-09 18:25 | -9.57205 | -36.62246 | 10482 ft | 178 kts | 191° |
| 2026-05-09 18:26 | -9.58388 | -36.62622 | 10484 ft | 178 kts | 192° |
| 2026-05-09 18:26 | -9.59577 | -36.62999 | 10480 ft | 179 kts | 192° |
| 2026-05-09 18:26 | -9.60766 | -36.63377 | 10480 ft | 179 kts | 192° |
| 2026-05-09 18:26 | -9.61958 | -36.63757 | 10479 ft | 179 kts | 192° |
| 2026-05-09 18:27 | -9.63145 | -36.64134 | 10481 ft | 179 kts | 192° |
| 2026-05-09 18:27 | -9.63931 | -36.64384 | 10479 ft | 179 kts | 192° |
| 2026-05-09 18:27 | -9.65525 | -36.64890 | 10488 ft | 180 kts | 192° |
| 2026-05-09 18:27 | -9.66723 | -36.65273 | 10486 ft | 181 kts | 192° |
| 2026-05-09 18:28 | -9.67926 | -36.65655 | 10483 ft | 181 kts | 192° |
| 2026-05-09 18:28 | -9.69129 | -36.66037 | 10483 ft | 181 kts | 192° |
| 2026-05-09 18:28 | -9.70320 | -36.66415 | 10483 ft | 182 kts | 192° |
| 2026-05-09 18:28 | -9.71531 | -36.66801 | 10484 ft | 182 kts | 192° |
| 2026-05-09 18:29 | -9.72742 | -36.67186 | 10482 ft | 182 kts | 192° |
| 2026-05-09 18:29 | -9.73947 | -36.67571 | 10479 ft | 181 kts | 192° |
| 2026-05-09 18:29 | -9.75144 | -36.67951 | 10479 ft | 180 kts | 192° |
| 2026-05-09 18:29 | -9.76338 | -36.68331 | 10478 ft | 179 kts | 192° |
| 2026-05-09 18:30 | -9.77529 | -36.68709 | 10483 ft | 179 kts | 192° |
| 2026-05-09 18:30 | -9.78725 | -36.69090 | 10483 ft | 180 kts | 192° |
| 2026-05-09 18:30 | -9.79911 | -36.69467 | 10482 ft | 181 kts | 192° |
| 2026-05-09 18:30 | -9.81114 | -36.69851 | 10482 ft | 181 kts | 192° |
| 2026-05-09 18:31 | -9.82315 | -36.70233 | 10482 ft | 181 kts | 192° |
| 2026-05-09 18:31 | -9.83521 | -36.70617 | 10488 ft | 182 kts | 192° |
| 2026-05-09 18:31 | -9.84730 | -36.71002 | 10484 ft | 181 kts | 192° |
| 2026-05-09 18:31 | -9.85930 | -36.71384 | 10485 ft | 180 kts | 192° |
| 2026-05-09 18:32 | -9.87124 | -36.71763 | 10484 ft | 179 kts | 192° |
| 2026-05-09 18:32 | -9.88315 | -36.72142 | 10486 ft | 179 kts | 192° |
| 2026-05-09 18:32 | -9.89502 | -36.72521 | 10482 ft | 179 kts | 192° |
| 2026-05-09 18:32 | -9.90674 | -36.72895 | 10483 ft | 178 kts | 192° |
| 2026-05-09 18:33 | -9.91858 | -36.73271 | 10488 ft | 178 kts | 192° |
| 2026-05-09 18:33 | -9.93041 | -36.73648 | 10483 ft | 178 kts | 192° |
| 2026-05-09 18:33 | -9.94223 | -36.74025 | 10488 ft | 178 kts | 192° |
| 2026-05-09 18:33 | -9.95410 | -36.74402 | 10487 ft | 179 kts | 192° |
| 2026-05-09 18:34 | -9.96598 | -36.74781 | 10486 ft | 179 kts | 192° |
| 2026-05-09 18:34 | -9.97787 | -36.75160 | 10492 ft | 179 kts | 192° |
| 2026-05-09 18:34 | -9.98963 | -36.75534 | 10484 ft | 179 kts | 192° |
| 2026-05-09 18:34 | -10.00148 | -36.75912 | 10490 ft | 179 kts | 192° |
| 2026-05-09 18:35 | -10.01339 | -36.76291 | 10488 ft | 181 kts | 192° |
| 2026-05-09 18:35 | -10.02552 | -36.76678 | 10495 ft | 184 kts | 192° |
| 2026-05-09 18:35 | -10.03786 | -36.77074 | 10494 ft | 187 kts | 193° |
| 2026-05-09 18:35 | -10.05030 | -36.77471 | 10498 ft | 187 kts | 192° |
| 2026-05-09 18:36 | -10.06262 | -36.77861 | 10499 ft | 188 kts | 192° |
| 2026-05-09 18:36 | -10.07514 | -36.78258 | 10505 ft | 189 kts | 192° |
| 2026-05-09 18:36 | -10.08777 | -36.78678 | 10505 ft | 193 kts | 194° |
| 2026-05-09 18:36 | -10.10063 | -36.79073 | 10499 ft | 194 kts | 191° |
| 2026-05-09 18:37 | -10.11347 | -36.79467 | 10500 ft | 192 kts | 193° |
| 2026-05-09 18:37 | -10.12614 | -36.79891 | 10494 ft | 190 kts | 192° |
| 2026-05-09 18:37 | -10.13864 | -36.80291 | 10495 ft | 186 kts | 192° |
| 2026-05-09 18:37 | -10.15095 | -36.80680 | 10490 ft | 184 kts | 192° |
| 2026-05-09 18:38 | -10.16308 | -36.81066 | 10488 ft | 182 kts | 192° |
| 2026-05-09 18:38 | -10.17517 | -36.81451 | 10487 ft | 182 kts | 192° |
| 2026-05-09 18:38 | -10.18726 | -36.81836 | 10487 ft | 181 kts | 192° |
| 2026-05-09 18:40 | -10.27080 | -36.84503 | 10489 ft | 179 kts | 192° |
| 2026-05-09 18:40 | -10.28262 | -36.84880 | 10496 ft | 180 kts | 192° |
| 2026-05-09 18:40 | -10.29456 | -36.85261 | 10495 ft | 179 kts | 192° |
| 2026-05-09 18:41 | -10.30644 | -36.85641 | 10501 ft | 178 kts | 192° |
| 2026-05-09 18:41 | -10.31829 | -36.86018 | 10496 ft | 179 kts | 192° |
| 2026-05-09 18:41 | -10.33005 | -36.86394 | 10495 ft | 179 kts | 192° |
| 2026-05-09 18:41 | -10.34193 | -36.86774 | 10500 ft | 178 kts | 192° |
| 2026-05-09 18:42 | -10.35373 | -36.87150 | 10500 ft | 178 kts | 192° |
| 2026-05-09 18:42 | -10.36556 | -36.87528 | 10499 ft | 178 kts | 192° |
| 2026-05-09 18:42 | -10.37737 | -36.87905 | 10503 ft | 178 kts | 192° |
| 2026-05-09 18:42 | -10.38919 | -36.88282 | 10501 ft | 178 kts | 192° |
| 2026-05-09 18:43 | -10.40109 | -36.88664 | 10501 ft | 180 kts | 192° |
| 2026-05-09 18:43 | -10.41307 | -36.89047 | 10501 ft | 180 kts | 192° |
| 2026-05-09 18:43 | -10.42504 | -36.89429 | 10501 ft | 180 kts | 192° |
| 2026-05-09 18:43 | -10.43701 | -36.89812 | 10500 ft | 180 kts | 192° |
| 2026-05-09 18:44 | -10.44886 | -36.90191 | 10500 ft | 180 kts | 192° |
| 2026-05-09 18:44 | -10.46080 | -36.90572 | 10502 ft | 180 kts | 192° |
| 2026-05-09 18:44 | -10.47274 | -36.90954 | 10498 ft | 180 kts | 192° |
| 2026-05-09 18:44 | -10.48468 | -36.91336 | 10497 ft | 179 kts | 192° |
| 2026-05-09 18:45 | -10.49658 | -36.91716 | 10501 ft | 179 kts | 192° |
| 2026-05-09 18:45 | -10.50848 | -36.92096 | 10506 ft | 179 kts | 192° |
| 2026-05-09 18:45 | -10.52037 | -36.92476 | 10505 ft | 179 kts | 192° |
| 2026-05-09 18:45 | -10.53228 | -36.92857 | 10509 ft | 179 kts | 192° |
| 2026-05-09 18:46 | -10.54404 | -36.93233 | 10507 ft | 179 kts | 192° |
| 2026-05-09 18:46 | -10.55592 | -36.93614 | 10506 ft | 179 kts | 192° |
| 2026-05-09 18:46 | -10.56784 | -36.93994 | 10505 ft | 179 kts | 192° |
| 2026-05-09 18:46 | -10.57976 | -36.94375 | 10507 ft | 179 kts | 193° |
| 2026-05-09 18:47 | -10.59166 | -36.94758 | 10511 ft | 179 kts | 193° |
| 2026-05-09 18:47 | -10.60355 | -36.95138 | 10507 ft | 179 kts | 193° |
| 2026-05-09 18:47 | -10.61541 | -36.95517 | 10506 ft | 179 kts | 193° |
| 2026-05-09 18:47 | -10.62725 | -36.95896 | 10506 ft | 178 kts | 193° |
| 2026-05-09 18:48 | -10.63897 | -36.96271 | 10506 ft | 179 kts | 193° |
| 2026-05-09 18:48 | -10.65085 | -36.96651 | 10504 ft | 179 kts | 192° |
| 2026-05-09 18:48 | -10.66275 | -36.97032 | 10502 ft | 179 kts | 193° |
| 2026-05-09 18:48 | -10.67466 | -36.97413 | 10505 ft | 180 kts | 193° |
| 2026-05-09 18:49 | -10.68700 | -36.97807 | 10298 ft | 192 kts | 193° |
| 2026-05-09 18:49 | -10.70023 | -36.97897 | 10067 ft | 193 kts | 167° |
| 2026-05-09 18:49 | -10.71344 | -36.97633 | 9834 ft | 194 kts | 164° |
| 2026-05-09 18:49 | -10.72640 | -36.97262 | 9579 ft | 192 kts | 157° |
| 2026-05-09 18:50 | -10.73865 | -36.96800 | 9333 ft | 187 kts | 155° |
| 2026-05-09 18:50 | -10.75066 | -36.96340 | 9076 ft | 183 kts | 155° |
| 2026-05-09 18:50 | -10.76246 | -36.95890 | 8821 ft | 179 kts | 156° |
| 2026-05-09 18:50 | -10.77406 | -36.95449 | 8566 ft | 177 kts | 156° |
| 2026-05-09 18:51 | -10.78552 | -36.95012 | 8323 ft | 175 kts | 155° |
| 2026-05-09 18:51 | -10.79690 | -36.94577 | 8077 ft | 174 kts | 155° |
| 2026-05-09 18:51 | -10.80820 | -36.94145 | 7836 ft | 173 kts | 155° |
| 2026-05-09 18:51 | -10.81949 | -36.93712 | 7591 ft | 173 kts | 156° |
| 2026-05-09 18:52 | -10.83070 | -36.93280 | 7351 ft | 172 kts | 155° |
| 2026-05-09 18:52 | -10.84174 | -36.92852 | 7116 ft | 171 kts | 155° |
| 2026-05-09 18:52 | -10.85286 | -36.92421 | 6879 ft | 170 kts | 156° |
| 2026-05-09 18:52 | -10.86390 | -36.91992 | 6644 ft | 169 kts | 156° |
| 2026-05-09 18:53 | -10.87486 | -36.91558 | 6411 ft | 168 kts | 156° |
| 2026-05-09 18:53 | -10.88575 | -36.91121 | 6160 ft | 168 kts | 156° |
| 2026-05-09 18:53 | -10.89739 | -36.91106 | 5914 ft | 178 kts | 198° |
| 2026-05-09 18:53 | -10.90628 | -36.91996 | 5671 ft | 190 kts | 243° |
| 2026-05-09 18:54 | -10.90744 | -36.93345 | 5433 ft | 195 kts | 272° |
| 2026-05-09 18:54 | -10.90759 | -36.94707 | 5188 ft | 191 kts | 256° |
| 2026-05-09 18:54 | -10.91052 | -36.96000 | 4952 ft | 189 kts | 252° |
| 2026-05-09 18:54 | -10.91363 | -36.97311 | 4708 ft | 187 kts | 252° |
| 2026-05-09 18:55 | -10.91659 | -36.98576 | 4461 ft | 186 kts | 252° |
| 2026-05-09 18:55 | -10.91953 | -36.99858 | 4197 ft | 185 kts | 253° |
| 2026-05-09 18:55 | -10.92258 | -37.01134 | 3970 ft | 185 kts | 252° |
| 2026-05-09 18:55 | -10.92514 | -37.02420 | 3725 ft | 186 kts | 257° |
| 2026-05-09 18:56 | -10.92690 | -37.03722 | 3483 ft | 185 kts | 260° |
| 2026-05-09 18:56 | -10.92813 | -37.05028 | 3247 ft | 185 kts | 260° |
| 2026-05-09 18:56 | -10.92934 | -37.06334 | 3001 ft | 185 kts | 261° |
| 2026-05-09 18:56 | -10.93017 | -37.07197 | 2838 ft | 185 kts | 261° |
| 2026-05-09 18:57 | -10.93184 | -37.08918 | 2513 ft | 184 kts | 261° |
| 2026-05-09 18:57 | -10.93304 | -37.10153 | 2258 ft | 163 kts | 259° |
| 2026-05-09 18:57 | -10.93537 | -37.10831 | 2061 ft | 147 kts | 228° |
| 2026-05-09 18:57 | -10.94352 | -37.11244 | 1804 ft | 130 kts | 174° |
| 2026-05-09 18:58 | -10.95219 | -37.11067 | 1547 ft | 123 kts | 162° |
| 2026-05-09 18:58 | -10.96009 | -37.10953 | 1493 ft | 105 kts | 166° |
| 2026-05-09 18:58 | -10.96714 | -37.10872 | 1494 ft | 99 kts | 165° |
| 2026-05-09 18:58 | -10.97380 | -37.10758 | 1444 ft | 94 kts | 162° |
| 2026-05-09 18:59 | -10.97873 | -37.10405 | 1079 ft | 92 kts | 116° |
| 2026-05-09 18:59 | -10.98136 | -37.09840 | 785 ft | 76 kts | 115° |
| 2026-05-09 18:59 | -10.98295 | -37.09342 | 522 ft | 75 kts | 100° |
| 2026-05-09 18:59 | -10.98330 | -37.08803 | 271 ft | 79 kts | 94° |
| 2026-05-09 19:00 | -10.98352 | -37.08258 | 98 ft | 74 kts | 100° |
| 2026-05-09 19:00 | -10.98394 | -37.07439 | 42 ft | 25 kts | 92° |
| 2026-05-09 19:00 | -10.98395 | -37.07334 | 40 ft | 12 kts | 88° |
| 2026-05-09 19:01 | -10.98415 | -37.07234 | 40 ft | 18 kts | 141° |
| 2026-05-09 19:01 | -10.98529 | -37.07232 | 40 ft | 16 kts | 184° |
| 2026-05-09 19:01 | -10.98580 | -37.07165 | 40 ft | 14 kts | 91° |
| 2026-05-09 19:01 | -10.98589 | -37.07118 | 40 ft | 4 kts | 208° |
| 2026-05-09 19:02 | -10.98624 | -37.07124 | 40 ft | 4 kts | 143° |
| 2026-05-09 19:02 | -10.98640 | -37.07120 | 29 ft | 2 kts | 182° |
| 2026-05-09 19:02 | -10.98644 | -37.07121 | 25 ft | 0 kts | 183° |